sensor_id;sensor_type;location;lat;lon;timestamp;pressure;altitude;pressure_sealevel;temperature;humidity
2188;BME280;1100;52.014;8.540;2023-04-26T00:00:04;100290.34;;;1.70;74.86
2188;BME280;1100;52.014;8.540;2023-04-26T00:02:33;100293.09;;;1.70;75.07
2188;BME280;1100;52.014;8.540;2023-04-26T00:04:58;100293.06;;;1.66;75.47
2188;BME280;1100;52.014;8.540;2023-04-26T00:07:25;100302.06;;;1.67;75.77
2188;BME280;1100;52.014;8.540;2023-04-26T00:09:52;100303.25;;;1.66;76.15
2188;BME280;1100;52.014;8.540;2023-04-26T00:12:18;100286.78;;;1.66;76.07
2188;BME280;1100;52.014;8.540;2023-04-26T00:14:44;100292.66;;;1.64;76.04
2188;BME280;1100;52.014;8.540;2023-04-26T00:17:10;100297.69;;;1.58;75.98
2188;BME280;1100;52.014;8.540;2023-04-26T00:19:35;100288.97;;;1.53;75.86
2188;BME280;1100;52.014;8.540;2023-04-26T00:22:01;100289.31;;;1.47;75.81
2188;BME280;1100;52.014;8.540;2023-04-26T00:24:27;100286.94;;;1.46;75.81
2188;BME280;1100;52.014;8.540;2023-04-26T00:26:55;100289.63;;;1.42;75.93
2188;BME280;1100;52.014;8.540;2023-04-26T00:29:21;100289.22;;;1.40;76.21
2188;BME280;1100;52.014;8.540;2023-04-26T00:31:46;100294.66;;;1.36;76.26
2188;BME280;1100;52.014;8.540;2023-04-26T00:34:11;100297.78;;;1.35;76.58
2188;BME280;1100;52.014;8.540;2023-04-26T00:36:37;100292.22;;;1.31;76.37
2188;BME280;1100;52.014;8.540;2023-04-26T00:39:02;100294.13;;;1.27;76.45
2188;BME280;1100;52.014;8.540;2023-04-26T00:41:28;100293.72;;;1.25;76.75
2188;BME280;1100;52.014;8.540;2023-04-26T00:43:53;100291.72;;;1.22;76.46
2188;BME280;1100;52.014;8.540;2023-04-26T00:46:19;100296.75;;;1.20;76.82
2188;BME280;1100;52.014;8.540;2023-04-26T00:48:45;100289.75;;;1.22;77.03
2188;BME280;1100;52.014;8.540;2023-04-26T00:51:11;100292.84;;;1.21;77.02
2188;BME280;1100;52.014;8.540;2023-04-26T00:53:37;100292.81;;;1.17;77.03
2188;BME280;1100;52.014;8.540;2023-04-26T00:56:05;100287.72;;;1.16;76.92
2188;BME280;1100;52.014;8.540;2023-04-26T00:58:31;100288.84;;;1.15;77.27
2188;BME280;1100;52.014;8.540;2023-04-26T01:00:57;100299.03;;;1.14;77.24
2188;BME280;1100;52.014;8.540;2023-04-26T01:03:22;100289.56;;;1.08;77.25
2188;BME280;1100;52.014;8.540;2023-04-26T01:05:48;100290.31;;;1.05;77.28
2188;BME280;1100;52.014;8.540;2023-04-26T01:08:14;100285.13;;;0.99;77.37
2188;BME280;1100;52.014;8.540;2023-04-26T01:10:48;100291.34;;;0.96;77.44
2188;BME280;1100;52.014;8.540;2023-04-26T01:13:14;100293.28;;;0.96;77.40
2188;BME280;1100;52.014;8.540;2023-04-26T01:15:44;100291.34;;;0.96;77.68
2188;BME280;1100;52.014;8.540;2023-04-26T01:18:11;100296.38;;;0.94;77.29
2188;BME280;1100;52.014;8.540;2023-04-26T01:20:36;100296.34;;;0.91;77.34
2188;BME280;1100;52.014;8.540;2023-04-26T01:23:02;100295.91;;;0.89;77.51
2188;BME280;1100;52.014;8.540;2023-04-26T01:25:28;100295.09;;;0.84;77.54
2188;BME280;1100;52.014;8.540;2023-04-26T01:27:55;100297.44;;;0.86;77.53
2188;BME280;1100;52.014;8.540;2023-04-26T01:30:20;100298.59;;;0.85;77.40
2188;BME280;1100;52.014;8.540;2023-04-26T01:32:46;100293.84;;;0.82;77.63
2188;BME280;1100;52.014;8.540;2023-04-26T01:35:11;100297.31;;;0.79;77.61
2188;BME280;1100;52.014;8.540;2023-04-26T01:37:36;100291.81;;;0.75;77.67
2188;BME280;1100;52.014;8.540;2023-04-26T01:40:02;100297.28;;;0.75;77.76
2188;BME280;1100;52.014;8.540;2023-04-26T01:42:31;100300.75;;;0.72;77.64
2188;BME280;1100;52.014;8.540;2023-04-26T01:44:56;100292.53;;;0.72;77.53
2188;BME280;1100;52.014;8.540;2023-04-26T01:47:21;100293.75;;;0.74;77.92
2188;BME280;1100;52.014;8.540;2023-04-26T01:49:47;100293.75;;;0.74;77.69
2188;BME280;1100;52.014;8.540;2023-04-26T01:52:12;100294.53;;;0.75;77.88
2188;BME280;1100;52.014;8.540;2023-04-26T01:54:37;100291.44;;;0.77;77.73
2188;BME280;1100;52.014;8.540;2023-04-26T01:57:03;100295.69;;;0.74;77.66
2188;BME280;1100;52.014;8.540;2023-04-26T01:59:28;100289.00;;;0.71;77.96
2188;BME280;1100;52.014;8.540;2023-04-26T02:01:54;100287.06;;;0.72;77.92
2188;BME280;1100;52.014;8.540;2023-04-26T02:04:19;100279.25;;;0.74;77.73
2188;BME280;1100;52.014;8.540;2023-04-26T02:06:44;100285.16;;;0.76;77.95
2188;BME280;1100;52.014;8.540;2023-04-26T02:09:10;100286.69;;;0.73;77.88
2188;BME280;1100;52.014;8.540;2023-04-26T02:11:35;100295.28;;;0.72;77.92
2188;BME280;1100;52.014;8.540;2023-04-26T02:14:00;100290.53;;;0.69;78.62
2188;BME280;1100;52.014;8.540;2023-04-26T02:16:26;100287.72;;;0.65;78.46
2188;BME280;1100;52.014;8.540;2023-04-26T02:18:51;100291.19;;;0.62;78.36
2188;BME280;1100;52.014;8.540;2023-04-26T02:21:20;100288.84;;;0.60;78.38
2188;BME280;1100;52.014;8.540;2023-04-26T02:23:46;100293.56;;;0.64;78.55
2188;BME280;1100;52.014;8.540;2023-04-26T02:26:12;100297.03;;;0.60;78.47
2188;BME280;1100;52.014;8.540;2023-04-26T02:28:37;100296.66;;;0.62;78.71
2188;BME280;1100;52.014;8.540;2023-04-26T02:31:03;100292.72;;;0.59;78.44
2188;BME280;1100;52.014;8.540;2023-04-26T02:33:28;100293.47;;;0.56;78.13
2188;BME280;1100;52.014;8.540;2023-04-26T02:35:53;100293.81;;;0.55;78.58
2188;BME280;1100;52.014;8.540;2023-04-26T02:38:19;100296.94;;;0.53;78.43
2188;BME280;1100;52.014;8.540;2023-04-26T02:40:44;100296.50;;;0.51;78.44
2188;BME280;1100;52.014;8.540;2023-04-26T02:43:10;100297.94;;;0.45;78.33
2188;BME280;1100;52.014;8.540;2023-04-26T02:45:42;100294.75;;;0.39;78.44
2188;BME280;1100;52.014;8.540;2023-04-26T02:48:07;100300.56;;;0.38;78.55
2188;BME280;1100;52.014;8.540;2023-04-26T02:50:33;100300.97;;;0.40;78.92
2188;BME280;1100;52.014;8.540;2023-04-26T02:52:58;100304.06;;;0.38;78.57
2188;BME280;1100;52.014;8.540;2023-04-26T02:55:24;100309.56;;;0.38;78.71
2188;BME280;1100;52.014;8.540;2023-04-26T02:57:49;100311.06;;;0.35;78.58
2188;BME280;1100;52.014;8.540;2023-04-26T03:00:18;100310.22;;;0.31;78.71
2188;BME280;1100;52.014;8.540;2023-04-26T03:02:43;100314.47;;;0.29;78.99
2188;BME280;1100;52.014;8.540;2023-04-26T03:05:09;100299.50;;;0.22;78.81
2188;BME280;1100;52.014;8.540;2023-04-26T03:07:35;100301.84;;;0.20;78.91
2188;BME280;1100;52.014;8.540;2023-04-26T03:10:00;100303.31;;;0.18;79.14
2188;BME280;1100;52.014;8.540;2023-04-26T03:12:27;100303.69;;;0.16;78.95
2188;BME280;1100;52.014;8.540;2023-04-26T03:14:52;100306.03;;;0.14;79.08
2188;BME280;1100;52.014;8.540;2023-04-26T03:17:17;100307.94;;;0.14;79.23
2188;BME280;1100;52.014;8.540;2023-04-26T03:19:43;100311.47;;;0.14;79.02
2188;BME280;1100;52.014;8.540;2023-04-26T03:22:08;100302.41;;;0.10;78.92
2188;BME280;1100;52.014;8.540;2023-04-26T03:24:35;100302.00;;;0.08;79.28
2188;BME280;1100;52.014;8.540;2023-04-26T03:27:00;100299.63;;;0.06;79.06
2188;BME280;1100;52.014;8.540;2023-04-26T03:29:26;100298.47;;;0.07;79.41
2188;BME280;1100;52.014;8.540;2023-04-26T03:31:51;100298.81;;;0.06;79.63
2188;BME280;1100;52.014;8.540;2023-04-26T03:34:16;100293.78;;;0.08;79.54
2188;BME280;1100;52.014;8.540;2023-04-26T03:36:42;100297.38;;;0.12;80.05
2188;BME280;1100;52.014;8.540;2023-04-26T03:39:07;100295.84;;;0.15;80.06
2188;BME280;1100;52.014;8.540;2023-04-26T03:41:34;100287.66;;;0.15;79.95
2188;BME280;1100;52.014;8.540;2023-04-26T03:44:01;100291.09;;;0.11;79.98
2188;BME280;1100;52.014;8.540;2023-04-26T03:46:26;100281.69;;;0.09;79.67
2188;BME280;1100;52.014;8.540;2023-04-26T03:48:51;100285.59;;;0.08;79.95
2188;BME280;1100;52.014;8.540;2023-04-26T03:51:16;100287.97;;;0.09;79.64
2188;BME280;1100;52.014;8.540;2023-04-26T03:53:42;100292.72;;;0.13;80.09
2188;BME280;1100;52.014;8.540;2023-04-26T03:56:07;100290.38;;;0.15;80.30
2188;BME280;1100;52.014;8.540;2023-04-26T03:58:35;100291.19;;;0.15;79.93
2188;BME280;1100;52.014;8.540;2023-04-26T04:01:01;100292.75;;;0.16;80.27
2188;BME280;1100;52.014;8.540;2023-04-26T04:03:26;100294.34;;;0.17;80.42
2188;BME280;1100;52.014;8.540;2023-04-26T04:05:54;100289.25;;;0.16;80.66
2188;BME280;1100;52.014;8.540;2023-04-26T04:08:19;100305.66;;;0.16;80.78
2188;BME280;1100;52.014;8.540;2023-04-26T04:10:44;100292.84;;;0.20;80.84
2188;BME280;1100;52.014;8.540;2023-04-26T04:13:10;100294.41;;;0.21;80.86
2188;BME280;1100;52.014;8.540;2023-04-26T04:15:35;100294.75;;;0.19;80.78
2188;BME280;1100;52.014;8.540;2023-04-26T04:18:00;100292.38;;;0.18;80.50
2188;BME280;1100;52.014;8.540;2023-04-26T04:20:26;100296.72;;;0.19;81.05
2188;BME280;1100;52.014;8.540;2023-04-26T04:22:52;100296.72;;;0.19;80.86
2188;BME280;1100;52.014;8.540;2023-04-26T04:25:17;100291.63;;;0.17;80.76
2188;BME280;1100;52.014;8.540;2023-04-26T04:27:45;100294.75;;;0.19;81.40
2188;BME280;1100;52.014;8.540;2023-04-26T04:30:11;100298.28;;;0.20;80.91
2188;BME280;1100;52.014;8.540;2023-04-26T04:32:36;100294.00;;;0.19;80.78
2188;BME280;1100;52.014;8.540;2023-04-26T04:35:04;100297.50;;;0.19;81.08
2188;BME280;1100;52.014;8.540;2023-04-26T04:37:29;100298.28;;;0.20;81.17
2188;BME280;1100;52.014;8.540;2023-04-26T04:39:57;100300.22;;;0.19;81.63
2188;BME280;1100;52.014;8.540;2023-04-26T04:42:22;100305.78;;;0.23;81.77
2188;BME280;1100;52.014;8.540;2023-04-26T04:44:47;100311.25;;;0.23;81.75
2188;BME280;1100;52.014;8.540;2023-04-26T04:47:14;100309.31;;;0.23;82.52
2188;BME280;1100;52.014;8.540;2023-04-26T04:49:40;100308.50;;;0.23;81.81
2188;BME280;1100;52.014;8.540;2023-04-26T04:52:05;100311.31;;;0.27;81.99
2188;BME280;1100;52.014;8.540;2023-04-26T04:54:31;100310.97;;;0.28;81.75
2188;BME280;1100;52.014;8.540;2023-04-26T04:56:57;100315.63;;;0.28;81.72
2188;BME280;1100;52.014;8.540;2023-04-26T04:59:23;100310.16;;;0.28;81.90
2188;BME280;1100;52.014;8.540;2023-04-26T05:01:49;100323.47;;;0.29;82.39
2188;BME280;1100;52.014;8.540;2023-04-26T05:04:14;100320.38;;;0.31;82.06
2188;BME280;1100;52.014;8.540;2023-04-26T05:06:39;100317.28;;;0.32;82.26
2188;BME280;1100;52.014;8.540;2023-04-26T05:09:05;100321.16;;;0.31;82.14
2188;BME280;1100;52.014;8.540;2023-04-26T05:11:31;100313.38;;;0.33;82.91
2188;BME280;1100;52.014;8.540;2023-04-26T05:13:57;100321.56;;;0.33;82.39
2188;BME280;1100;52.014;8.540;2023-04-26T05:16:22;100329.84;;;0.37;82.76
2188;BME280;1100;52.014;8.540;2023-04-26T05:18:47;100329.50;;;0.39;82.50
2188;BME280;1100;52.014;8.540;2023-04-26T05:21:13;100329.97;;;0.44;82.70
2188;BME280;1100;52.014;8.540;2023-04-26T05:23:38;100328.88;;;0.49;82.69
2188;BME280;1100;52.014;8.540;2023-04-26T05:26:03;100325.78;;;0.51;82.77
2188;BME280;1100;52.014;8.540;2023-04-26T05:28:30;100331.75;;;0.56;83.03
2188;BME280;1100;52.014;8.540;2023-04-26T05:30:55;100329.06;;;0.60;82.65
2188;BME280;1100;52.014;8.540;2023-04-26T05:33:21;100333.44;;;0.65;82.90
2188;BME280;1100;52.014;8.540;2023-04-26T05:35:47;100331.59;;;0.69;82.70
2188;BME280;1100;52.014;8.540;2023-04-26T05:38:12;100326.16;;;0.72;82.48
2188;BME280;1100;52.014;8.540;2023-04-26T05:40:38;100339.97;;;0.80;82.88
2188;BME280;1100;52.014;8.540;2023-04-26T05:43:03;100340.50;;;0.89;83.17
2188;BME280;1100;52.014;8.540;2023-04-26T05:45:28;100340.97;;;0.95;82.76
2188;BME280;1100;52.014;8.540;2023-04-26T05:47:54;100337.50;;;0.98;82.87
2188;BME280;1100;52.014;8.540;2023-04-26T05:50:19;100349.38;;;1.06;82.95
2188;BME280;1100;52.014;8.540;2023-04-26T05:52:44;100342.78;;;1.10;83.21
2188;BME280;1100;52.014;8.540;2023-04-26T05:55:10;100341.22;;;1.09;82.94
2188;BME280;1100;52.014;8.540;2023-04-26T05:57:35;100349.91;;;1.15;83.07
2188;BME280;1100;52.014;8.540;2023-04-26T06:00:02;100350.38;;;1.21;83.32
2188;BME280;1100;52.014;8.540;2023-04-26T06:02:29;100348.59;;;1.32;83.02
2188;BME280;1100;52.014;8.540;2023-04-26T06:04:54;100358.06;;;1.39;82.64
2188;BME280;1100;52.014;8.540;2023-04-26T06:07:20;100350.78;;;1.50;82.90
2188;BME280;1100;52.014;8.540;2023-04-26T06:09:45;100355.22;;;1.58;82.73
2188;BME280;1100;52.014;8.540;2023-04-26T06:12:10;100349.00;;;1.61;82.83
2188;BME280;1100;52.014;8.540;2023-04-26T06:14:36;100346.78;;;1.71;82.97
2188;BME280;1100;52.014;8.540;2023-04-26T06:17:01;100351.16;;;1.79;83.10
2188;BME280;1100;52.014;8.540;2023-04-26T06:19:27;100350.84;;;1.84;82.81
2188;BME280;1100;52.014;8.540;2023-04-26T06:21:52;100353.66;;;1.92;82.79
2188;BME280;1100;52.014;8.540;2023-04-26T06:24:19;100360.78;;;1.96;82.54
2188;BME280;1100;52.014;8.540;2023-04-26T06:26:45;100363.66;;;2.07;82.44
2188;BME280;1100;52.014;8.540;2023-04-26T06:29:10;100366.88;;;2.17;82.49
2188;BME280;1100;52.014;8.540;2023-04-26T06:31:36;100379.19;;;2.30;82.66
2188;BME280;1100;52.014;8.540;2023-04-26T06:34:01;100379.28;;;2.38;82.50
2188;BME280;1100;52.014;8.540;2023-04-26T06:36:27;100384.00;;;2.41;81.99
2188;BME280;1100;52.014;8.540;2023-04-26T06:38:52;100386.03;;;2.47;82.18
2188;BME280;1100;52.014;8.540;2023-04-26T06:41:18;100388.06;;;2.54;82.22
2188;BME280;1100;52.014;8.540;2023-04-26T06:43:43;100397.19;;;2.66;82.30
2188;BME280;1100;52.014;8.540;2023-04-26T06:46:08;100388.78;;;2.85;82.23
2188;BME280;1100;52.014;8.540;2023-04-26T06:48:34;100387.31;;;2.99;81.98
2188;BME280;1100;52.014;8.540;2023-04-26T06:51:04;100388.97;;;3.07;81.93
2188;BME280;1100;52.014;8.540;2023-04-26T06:53:29;100385.84;;;3.13;81.74
2188;BME280;1100;52.014;8.540;2023-04-26T06:55:54;100391.50;;;3.31;81.76
2188;BME280;1100;52.014;8.540;2023-04-26T06:58:22;100391.59;;;3.49;81.17
2188;BME280;1100;52.014;8.540;2023-04-26T07:00:47;100395.53;;;3.48;80.53
2188;BME280;1100;52.014;8.540;2023-04-26T07:03:13;100392.41;;;3.49;80.98
2188;BME280;1100;52.014;8.540;2023-04-26T07:05:38;100394.38;;;3.56;80.73
2188;BME280;1100;52.014;8.540;2023-04-26T07:08:04;100385.81;;;3.69;80.79
2188;BME280;1100;52.014;8.540;2023-04-26T07:10:29;100400.44;;;3.84;80.70
2188;BME280;1100;52.014;8.540;2023-04-26T07:12:54;100401.28;;;3.99;80.84
2188;BME280;1100;52.014;8.540;2023-04-26T07:15:20;100400.19;;;4.11;80.09
2188;BME280;1100;52.014;8.540;2023-04-26T07:17:45;100400.66;;;4.31;80.29
2188;BME280;1100;52.014;8.540;2023-04-26T07:20:11;100403.81;;;4.44;79.72
2188;BME280;1100;52.014;8.540;2023-04-26T07:22:37;100392.03;;;4.44;79.51
2188;BME280;1100;52.014;8.540;2023-04-26T07:25:03;100403.06;;;4.58;79.97
2188;BME280;1100;52.014;8.540;2023-04-26T07:27:29;100399.94;;;4.71;79.38
2188;BME280;1100;52.014;8.540;2023-04-26T07:29:55;100396.41;;;4.70;78.71
2188;BME280;1100;52.014;8.540;2023-04-26T07:32:20;100398.38;;;4.77;78.74
2188;BME280;1100;52.014;8.540;2023-04-26T07:34:46;100398.41;;;5.06;78.71
2188;BME280;1100;52.014;8.540;2023-04-26T07:37:11;100401.53;;;5.48;78.22
2188;BME280;1100;52.014;8.540;2023-04-26T07:39:36;100401.44;;;5.89;78.28
2188;BME280;1100;52.014;8.540;2023-04-26T07:42:02;100397.41;;;6.22;77.67
2188;BME280;1100;52.014;8.540;2023-04-26T07:44:27;100402.72;;;6.59;76.37
2188;BME280;1100;52.014;8.540;2023-04-26T07:46:53;100397.97;;;6.63;75.23
2188;BME280;1100;52.014;8.540;2023-04-26T07:49:18;100402.69;;;6.70;75.46
2188;BME280;1100;52.014;8.540;2023-04-26T07:51:43;100405.31;;;6.84;75.76
2188;BME280;1100;52.014;8.540;2023-04-26T07:54:09;100400.41;;;7.10;75.96
2188;BME280;1100;52.014;8.540;2023-04-26T07:56:35;100403.72;;;7.37;76.42
2188;BME280;1100;52.014;8.540;2023-04-26T07:59:00;100394.25;;;7.76;76.10
2188;BME280;1100;52.014;8.540;2023-04-26T08:01:26;100399.69;;;7.83;74.56
2188;BME280;1100;52.014;8.540;2023-04-26T08:03:52;100406.41;;;7.44;74.14
2188;BME280;1100;52.014;8.540;2023-04-26T08:06:18;100405.06;;;7.21;73.22
2188;BME280;1100;52.014;8.540;2023-04-26T08:08:43;100391.97;;;6.76;72.44
2188;BME280;1100;52.014;8.540;2023-04-26T08:11:13;100398.97;;;6.88;73.55
2188;BME280;1100;52.014;8.540;2023-04-26T08:13:38;100400.66;;;7.27;72.79
2188;BME280;1100;52.014;8.540;2023-04-26T08:16:04;100401.09;;;7.64;72.55
2188;BME280;1100;52.014;8.540;2023-04-26T08:18:30;100398.50;;;7.84;70.59
2188;BME280;1100;52.014;8.540;2023-04-26T08:20:55;100391.31;;;7.91;71.90
2188;BME280;1100;52.014;8.540;2023-04-26T08:23:21;100397.25;;;7.89;70.20
2188;BME280;1100;52.014;8.540;2023-04-26T08:25:47;100403.84;;;8.03;70.24
2188;BME280;1100;52.014;8.540;2023-04-26T08:28:13;100399.84;;;8.07;70.23
2188;BME280;1100;52.014;8.540;2023-04-26T08:30:40;100402.16;;;7.78;69.50
2188;BME280;1100;52.014;8.540;2023-04-26T08:33:05;100393.78;;;7.81;69.90
2188;BME280;1100;52.014;8.540;2023-04-26T08:35:31;100400.13;;;7.82;70.41
2188;BME280;1100;52.014;8.540;2023-04-26T08:37:56;100401.88;;;7.65;69.92
2188;BME280;1100;52.014;8.540;2023-04-26T08:40:23;100396.53;;;7.46;69.80
2188;BME280;1100;52.014;8.540;2023-04-26T08:42:49;100395.75;;;7.42;68.12
2188;BME280;1100;52.014;8.540;2023-04-26T08:45:14;100398.44;;;7.53;68.76
2188;BME280;1100;52.014;8.540;2023-04-26T08:47:50;100399.72;;;7.45;68.27
2188;BME280;1100;52.014;8.540;2023-04-26T08:50:21;100401.25;;;7.84;67.40
2188;BME280;1100;52.014;8.540;2023-04-26T08:52:49;100395.00;;;8.15;68.21
2188;BME280;1100;52.014;8.540;2023-04-26T08:55:16;100393.31;;;8.53;65.96
2188;BME280;1100;52.014;8.540;2023-04-26T08:57:45;100394.84;;;8.57;66.89
2188;BME280;1100;52.014;8.540;2023-04-26T09:00:11;100392.31;;;8.70;65.65
2188;BME280;1100;52.014;8.540;2023-04-26T09:02:40;100398.19;;;8.72;63.52
2188;BME280;1100;52.014;8.540;2023-04-26T09:05:09;100388.16;;;8.82;64.36
2188;BME280;1100;52.014;8.540;2023-04-26T09:07:42;100396.44;;;9.34;64.90
2188;BME280;1100;52.014;8.540;2023-04-26T09:10:09;100386.50;;;9.37;64.85
2188;BME280;1100;52.014;8.540;2023-04-26T09:12:35;100379.44;;;9.08;63.50
2188;BME280;1100;52.014;8.540;2023-04-26T09:15:00;100388.09;;;8.86;63.41
2188;BME280;1100;52.014;8.540;2023-04-26T09:17:30;100388.53;;;9.08;63.66
2188;BME280;1100;52.014;8.540;2023-04-26T09:19:56;100386.84;;;8.91;63.14
2188;BME280;1100;52.014;8.540;2023-04-26T09:22:36;100387.63;;;8.64;63.96
2188;BME280;1100;52.014;8.540;2023-04-26T09:25:05;100395.09;;;8.39;63.63
2188;BME280;1100;52.014;8.540;2023-04-26T09:27:36;100399.09;;;8.03;62.21
2188;BME280;1100;52.014;8.540;2023-04-26T09:30:17;100396.47;;;7.54;60.44
2188;BME280;1100;52.014;8.540;2023-04-26T09:37:51;100405.13;;;6.57;63.13
2188;BME280;1100;52.014;8.540;2023-04-26T09:40:18;100404.34;;;6.53;63.11
2188;BME280;1100;52.014;8.540;2023-04-26T09:42:44;100401.16;;;6.54;63.45
2188;BME280;1100;52.014;8.540;2023-04-26T09:45:10;100396.84;;;6.50;64.27
2188;BME280;1100;52.014;8.540;2023-04-26T09:47:36;100409.16;;;6.41;63.36
2188;BME280;1100;52.014;8.540;2023-04-26T09:50:01;100413.94;;;6.26;62.24
2188;BME280;1100;52.014;8.540;2023-04-26T09:52:26;100401.38;;;6.10;63.00
2188;BME280;1100;52.014;8.540;2023-04-26T09:54:53;100409.66;;;5.99;63.33
2188;BME280;1100;52.014;8.540;2023-04-26T09:57:20;100417.97;;;5.92;63.47
2188;BME280;1100;52.014;8.540;2023-04-26T09:59:48;100418.41;;;5.80;63.56
2188;BME280;1100;52.014;8.540;2023-04-26T10:04:41;100413.28;;;5.82;64.46
2188;BME280;1100;52.014;8.540;2023-04-26T10:07:08;100415.66;;;5.76;64.70
2188;BME280;1100;52.014;8.540;2023-04-26T10:09:34;100416.44;;;5.73;64.99
2188;BME280;1100;52.014;8.540;2023-04-26T10:12:00;100415.28;;;5.70;65.46
2188;BME280;1100;52.014;8.540;2023-04-26T10:14:26;100411.72;;;5.77;65.60
2188;BME280;1100;52.014;8.540;2023-04-26T10:16:53;100418.03;;;5.70;65.49
2188;BME280;1100;52.014;8.540;2023-04-26T10:19:20;100413.31;;;5.71;66.16
2188;BME280;1100;52.014;8.540;2023-04-26T10:21:47;100414.09;;;5.79;66.05
2188;BME280;1100;52.014;8.540;2023-04-26T10:24:13;100421.16;;;5.80;65.77
2188;BME280;1100;52.014;8.540;2023-04-26T10:26:51;100412.47;;;5.89;65.88
2188;BME280;1100;52.014;8.540;2023-04-26T10:29:19;100408.50;;;5.97;66.25
2188;BME280;1100;52.014;8.540;2023-04-26T10:32:13;100399.38;;;6.18;65.96
2188;BME280;1100;52.014;8.540;2023-04-26T10:34:42;100404.38;;;6.45;65.66
2188;BME280;1100;52.014;8.540;2023-04-26T10:37:13;100406.09;;;6.89;65.51
2188;BME280;1100;52.014;8.540;2023-04-26T10:39:42;100394.41;;;7.16;65.82
2188;BME280;1100;52.014;8.540;2023-04-26T10:42:16;100395.88;;;7.31;65.44
2188;BME280;1100;52.014;8.540;2023-04-26T10:47:42;100399.41;;;7.35;64.12
2188;BME280;1100;52.014;8.540;2023-04-26T10:50:08;100390.47;;;7.17;64.54
2188;BME280;1100;52.014;8.540;2023-04-26T10:55:40;100389.75;;;7.09;64.64
2188;BME280;1100;52.014;8.540;2023-04-26T10:58:24;100395.31;;;7.05;64.33
2188;BME280;1100;52.014;8.540;2023-04-26T11:01:07;100387.00;;;7.05;64.17
2188;BME280;1100;52.014;8.540;2023-04-26T11:03:33;100397.78;;;7.42;64.20
2188;BME280;1100;52.014;8.540;2023-04-26T11:05:58;100382.09;;;8.32;64.11
2188;BME280;1100;52.014;8.540;2023-04-26T11:08:28;100390.81;;;8.90;63.34
2188;BME280;1100;52.014;8.540;2023-04-26T11:13:38;100379.06;;;9.30;62.29
2188;BME280;1100;52.014;8.540;2023-04-26T11:16:06;100384.00;;;9.42;62.43
2188;BME280;1100;52.014;8.540;2023-04-26T11:18:32;100380.81;;;9.20;62.19
2188;BME280;1100;52.014;8.540;2023-04-26T11:20:58;100389.78;;;8.80;61.90
2188;BME280;1100;52.014;8.540;2023-04-26T11:23:26;100381.59;;;8.41;61.06
2188;BME280;1100;52.014;8.540;2023-04-26T11:25:52;100387.19;;;8.06;61.10
2188;BME280;1100;52.014;8.540;2023-04-26T11:28:19;100382.06;;;7.70;61.98
2188;BME280;1100;52.014;8.540;2023-04-26T11:30:48;100384.97;;;7.55;61.83
2188;BME280;1100;52.014;8.540;2023-04-26T11:33:19;100377.91;;;7.51;62.63
2188;BME280;1100;52.014;8.540;2023-04-26T11:35:45;100377.81;;;7.58;62.87
2188;BME280;1100;52.014;8.540;2023-04-26T11:38:12;100380.56;;;7.62;62.85
2188;BME280;1100;52.014;8.540;2023-04-26T11:40:37;100388.47;;;7.63;63.07
2188;BME280;1100;52.014;8.540;2023-04-26T11:43:04;100387.66;;;7.63;63.26
2188;BME280;1100;52.014;8.540;2023-04-26T11:45:33;100391.59;;;7.65;62.52
2188;BME280;1100;52.014;8.540;2023-04-26T11:48:00;100386.09;;;7.62;62.78
2188;BME280;1100;52.014;8.540;2023-04-26T11:50:26;100376.25;;;7.60;63.43
2188;BME280;1100;52.014;8.540;2023-04-26T11:52:55;100379.25;;;7.73;63.44
2188;BME280;1100;52.014;8.540;2023-04-26T11:55:23;100385.13;;;7.79;61.74
2188;BME280;1100;52.014;8.540;2023-04-26T11:57:51;100391.91;;;7.75;61.79
2188;BME280;1100;52.014;8.540;2023-04-26T12:00:17;100389.00;;;7.85;61.64
2188;BME280;1100;52.014;8.540;2023-04-26T12:02:47;100387.91;;;7.79;61.63
2188;BME280;1100;52.014;8.540;2023-04-26T12:05:28;100387.41;;;7.84;61.27
2188;BME280;1100;52.014;8.540;2023-04-26T12:07:58;100388.63;;;7.83;61.48
2188;BME280;1100;52.014;8.540;2023-04-26T12:10:33;100395.00;;;7.80;61.24
2188;BME280;1100;52.014;8.540;2023-04-26T12:12:59;100392.13;;;7.88;60.69
2188;BME280;1100;52.014;8.540;2023-04-26T12:15:29;100397.50;;;8.02;60.68
2188;BME280;1100;52.014;8.540;2023-04-26T12:17:58;100406.84;;;8.16;59.64
2188;BME280;1100;52.014;8.540;2023-04-26T12:20:40;100405.00;;;8.37;60.25
2188;BME280;1100;52.014;8.540;2023-04-26T12:23:07;100405.22;;;8.81;60.03
2188;BME280;1100;52.014;8.540;2023-04-26T12:25:34;100401.69;;;9.04;59.68
2188;BME280;1100;52.014;8.540;2023-04-26T12:28:00;100399.09;;;9.41;59.87
2188;BME280;1100;52.014;8.540;2023-04-26T12:30:27;100401.19;;;9.78;58.00
2188;BME280;1100;52.014;8.540;2023-04-26T12:32:53;100395.78;;;9.70;57.17
2188;BME280;1100;52.014;8.540;2023-04-26T12:35:19;100389.59;;;9.39;57.49
2188;BME280;1100;52.014;8.540;2023-04-26T12:37:44;100395.16;;;9.15;57.34
2188;BME280;1100;52.014;8.540;2023-04-26T12:40:10;100375.69;;;8.94;57.33
2188;BME280;1100;52.014;8.540;2023-04-26T12:42:36;100390.56;;;8.80;57.07
2188;BME280;1100;52.014;8.540;2023-04-26T12:45:02;100392.88;;;8.58;57.44
2188;BME280;1100;52.014;8.540;2023-04-26T12:47:29;100388.75;;;8.39;57.18
2188;BME280;1100;52.014;8.540;2023-04-26T12:49:54;100387.78;;;8.21;57.84
2188;BME280;1100;52.014;8.540;2023-04-26T12:52:19;100400.69;;;8.01;56.23
2188;BME280;1100;52.014;8.540;2023-04-26T12:54:45;100397.03;;;7.76;57.42
2188;BME280;1100;52.014;8.540;2023-04-26T12:57:11;100393.19;;;7.63;57.93
2188;BME280;1100;52.014;8.540;2023-04-26T12:59:38;100400.44;;;7.49;57.98
2188;BME280;1100;52.014;8.540;2023-04-26T13:02:03;100403.66;;;7.44;57.52
2188;BME280;1100;52.014;8.540;2023-04-26T13:04:28;100395.06;;;7.34;58.41
2188;BME280;1100;52.014;8.540;2023-04-26T13:06:54;100403.34;;;7.34;58.60
2188;BME280;1100;52.014;8.540;2023-04-26T13:09:20;100408.09;;;7.34;58.48
2188;BME280;1100;52.014;8.540;2023-04-26T13:11:45;100410.09;;;7.33;58.92
2188;BME280;1100;52.014;8.540;2023-04-26T13:14:10;100413.97;;;7.40;58.83
2188;BME280;1100;52.014;8.540;2023-04-26T13:16:36;100399.41;;;7.35;58.55
2188;BME280;1100;52.014;8.540;2023-04-26T13:19:06;100399.75;;;7.38;58.52
2188;BME280;1100;52.014;8.540;2023-04-26T13:21:31;100400.56;;;7.34;58.50
2188;BME280;1100;52.014;8.540;2023-04-26T13:23:57;100404.56;;;7.30;58.72
2188;BME280;1100;52.014;8.540;2023-04-26T13:26:22;100404.31;;;7.17;58.30
2188;BME280;1100;52.014;8.540;2023-04-26T13:28:47;100396.50;;;7.04;57.89
2188;BME280;1100;52.014;8.540;2023-04-26T13:31:13;100396.91;;;7.03;58.39
2188;BME280;1100;52.014;8.540;2023-04-26T13:33:40;100395.25;;;7.13;58.81